ウルムチ の空港の天気 - METARとTAF

ウルムチ地窩堡国際空港 ( ZWWW / URC ) - 中華人民共和国 新疆ウイグル自治区ウルムチ市
飛行場実況気象(Metar)
観測時間04/26 00:00 CST (04/25 16:00 UTC)
風向・風速南 5m/s
視程10km以上
天気現象
なし
気温21℃
湿度31%
気圧1013hPa
METARZWWW 251600Z 19005MPS CAVOK 21/03 Q1013 NOSIG
過去の天気等 Google飛行場航空写真 Wunderground天気予報

過去48時間のMETAR

飛行場予報(TAF)
発表時間: 4/25 17:17 CST (4/25 09:17 UTC)
予報対象時間: 25日20時 CST ~ 26日20時 CST
風向・風速北 4m/s
視程10km以上
なし
25日21時 CST ~ 25日22時 CST に徐々に
風向・風速南 4m/s
26日8時 CST ~ 26日9時 CST に徐々に
風向・風速北北西 4m/s 瞬間風速 9m/s
視程10km以上
全天の8割程度の雲 雲底高度 1,220m
26日8時 CST ~ 26日14時 CST に一時的に
天気現象弱いしゅう雨
全天の4割程度の雲 雲底高度 340m
全天の8割程度の雲 雲底高度 1,220m
TAF ZWWW 250917Z 2512/2612 36004MPS CAVOK TX23/2513Z TN14/2523Z
BECMG 2513/2514 18004MPS
BECMG 2600/2601 33004G09MPS 9999 BKN040
TEMPO 2600/2606 -SHRA SCT011 BKN040